sensor_id;sensor_type;location;lat;lon;timestamp;pressure;altitude;pressure_sealevel;temperature;humidity
10897;BME280;5501;51.176;6.470;2023-10-19T00:03:33;98891.84;;;12.48;100.00
10897;BME280;5501;51.176;6.470;2023-10-19T00:08:35;98892.22;;;12.42;100.00
10897;BME280;5501;51.176;6.470;2023-10-19T00:13:42;98886.72;;;12.45;100.00
10897;BME280;5501;51.176;6.470;2023-10-19T00:18:46;98872.13;;;12.50;100.00
10897;BME280;5501;51.176;6.470;2023-10-19T00:23:59;98874.47;;;12.55;100.00
10897;BME280;5501;51.176;6.470;2023-10-19T00:29:06;98875.44;;;12.54;100.00
10897;BME280;5501;51.176;6.470;2023-10-19T00:34:28;98877.38;;;12.52;100.00
10897;BME280;5501;51.176;6.470;2023-10-19T00:39:30;98883.63;;;12.65;100.00
10897;BME280;5501;51.176;6.470;2023-10-19T00:44:44;98887.25;;;12.64;100.00
10897;BME280;5501;51.176;6.470;2023-10-19T00:49:50;98877.41;;;12.64;100.00
10897;BME280;5501;51.176;6.470;2023-10-19T00:54:52;98872.53;;;12.71;100.00
10897;BME280;5501;51.176;6.470;2023-10-19T01:00:01;98866.25;;;12.72;100.00
10897;BME280;5501;51.176;6.470;2023-10-19T01:05:29;98860.25;;;12.68;100.00
10897;BME280;5501;51.176;6.470;2023-10-19T01:10:39;98874.38;;;12.83;100.00
10897;BME280;5501;51.176;6.470;2023-10-19T01:15:41;98875.16;;;12.85;100.00
10897;BME280;5501;51.176;6.470;2023-10-19T01:20:43;98876.47;;;12.92;100.00
10897;BME280;5501;51.176;6.470;2023-10-19T01:26:08;98870.91;;;12.95;100.00
10897;BME280;5501;51.176;6.470;2023-10-19T01:31:17;98871.88;;;13.08;100.00
10897;BME280;5501;51.176;6.470;2023-10-19T01:36:32;98865.47;;;13.23;100.00
10897;BME280;5501;51.176;6.470;2023-10-19T01:41:43;98859.94;;;13.26;100.00
10897;BME280;5501;51.176;6.470;2023-10-19T01:46:45;98856.00;;;13.31;100.00
10897;BME280;5501;51.176;6.470;2023-10-19T01:51:47;98846.47;;;13.27;100.00
10897;BME280;5501;51.176;6.470;2023-10-19T01:56:53;98848.19;;;13.28;100.00
10897;BME280;5501;51.176;6.470;2023-10-19T02:01:58;98844.97;;;13.23;100.00
10897;BME280;5501;51.176;6.470;2023-10-19T02:07:00;98838.38;;;13.29;100.00
10897;BME280;5501;51.176;6.470;2023-10-19T02:12:02;98843.47;;;13.19;100.00
10897;BME280;5501;51.176;6.470;2023-10-19T02:17:06;98839.75;;;13.22;100.00
10897;BME280;5501;51.176;6.470;2023-10-19T02:22:08;98842.31;;;13.23;100.00
10897;BME280;5501;51.176;6.470;2023-10-19T02:27:10;98843.28;;;13.35;100.00
10897;BME280;5501;51.176;6.470;2023-10-19T02:32:27;98849.47;;;13.35;100.00
10897;BME280;5501;51.176;6.470;2023-10-19T02:37:29;98848.09;;;13.55;100.00
10897;BME280;5501;51.176;6.470;2023-10-19T02:42:31;98840.09;;;13.67;100.00
10897;BME280;5501;51.176;6.470;2023-10-19T02:47:33;98834.84;;;13.78;100.00
10897;BME280;5501;51.176;6.470;2023-10-19T02:52:36;98824.47;;;13.86;100.00
10897;BME280;5501;51.176;6.470;2023-10-19T02:57:37;98828.09;;;13.98;100.00
10897;BME280;5501;51.176;6.470;2023-10-19T03:02:40;98823.31;;;13.78;100.00
10897;BME280;5501;51.176;6.470;2023-10-19T03:07:42;98820.94;;;13.73;100.00
10897;BME280;5501;51.176;6.470;2023-10-19T03:12:46;98817.00;;;13.79;100.00
10897;BME280;5501;51.176;6.470;2023-10-19T03:17:48;98814.00;;;13.71;100.00
10897;BME280;5501;51.176;6.470;2023-10-19T03:22:50;98818.38;;;13.72;100.00
10897;BME280;5501;51.176;6.470;2023-10-19T03:27:54;98812.31;;;13.70;100.00
10897;BME280;5501;51.176;6.470;2023-10-19T03:32:56;98805.03;;;13.84;100.00
10897;BME280;5501;51.176;6.470;2023-10-19T03:38:00;98798.09;;;13.82;100.00
10897;BME280;5501;51.176;6.470;2023-10-19T03:43:09;98788.88;;;13.86;100.00
10897;BME280;5501;51.176;6.470;2023-10-19T03:48:19;98787.28;;;13.83;100.00
10897;BME280;5501;51.176;6.470;2023-10-19T03:53:37;98780.78;;;13.75;100.00
10897;BME280;5501;51.176;6.470;2023-10-19T03:58:39;98780.31;;;13.81;100.00
10897;BME280;5501;51.176;6.470;2023-10-19T04:03:44;98779.03;;;13.86;100.00
10897;BME280;5501;51.176;6.470;2023-10-19T04:08:45;98773.38;;;13.78;100.00
10897;BME280;5501;51.176;6.470;2023-10-19T04:13:52;98786.44;;;13.83;100.00
10897;BME280;5501;51.176;6.470;2023-10-19T04:18:54;98793.06;;;13.77;100.00
10897;BME280;5501;51.176;6.470;2023-10-19T04:23:56;98790.75;;;13.73;100.00
10897;BME280;5501;51.176;6.470;2023-10-19T04:28:58;98791.16;;;13.54;100.00
10897;BME280;5501;51.176;6.470;2023-10-19T04:33:59;98780.69;;;13.64;100.00
10897;BME280;5501;51.176;6.470;2023-10-19T04:39:11;98780.69;;;13.64;100.00
10897;BME280;5501;51.176;6.470;2023-10-19T04:44:15;98782.63;;;13.62;100.00
10897;BME280;5501;51.176;6.470;2023-10-19T04:49:17;98785.38;;;13.73;100.00
10897;BME280;5501;51.176;6.470;2023-10-19T04:54:18;98782.81;;;13.71;100.00
10897;BME280;5501;51.176;6.470;2023-10-19T04:59:20;98787.31;;;13.71;100.00
10897;BME280;5501;51.176;6.470;2023-10-19T05:04:21;98789.25;;;13.69;100.00
10897;BME280;5501;51.176;6.470;2023-10-19T05:09:23;98791.59;;;13.61;100.00
10897;BME280;5501;51.176;6.470;2023-10-19T05:14:24;98788.47;;;13.67;100.00
10897;BME280;5501;51.176;6.470;2023-10-19T05:19:26;98789.25;;;13.69;100.00
10897;BME280;5501;51.176;6.470;2023-10-19T05:24:28;98785.81;;;13.67;100.00
10897;BME280;5501;51.176;6.470;2023-10-19T05:29:33;98797.00;;;13.72;100.00
10897;BME280;5501;51.176;6.470;2023-10-19T05:34:35;98783.75;;;13.70;100.00
10897;BME280;5501;51.176;6.470;2023-10-19T05:39:37;98783.44;;;13.75;100.00
10897;BME280;5501;51.176;6.470;2023-10-19T05:44:39;98791.91;;;13.69;100.00
10897;BME280;5501;51.176;6.470;2023-10-19T05:49:41;98780.47;;;13.67;100.00
10897;BME280;5501;51.176;6.470;2023-10-19T05:54:42;98790.28;;;13.79;100.00
10897;BME280;5501;51.176;6.470;2023-10-19T05:59:44;98797.78;;;13.74;100.00
10897;BME280;5501;51.176;6.470;2023-10-19T06:04:45;98797.53;;;13.89;100.00
10897;BME280;5501;51.176;6.470;2023-10-19T06:09:47;98806.06;;;13.94;100.00
10897;BME280;5501;51.176;6.470;2023-10-19T06:14:48;98817.09;;;13.90;100.00
10897;BME280;5501;51.176;6.470;2023-10-19T06:19:50;98819.22;;;13.85;100.00
10897;BME280;5501;51.176;6.470;2023-10-19T06:24:51;98825.84;;;13.92;100.00
10897;BME280;5501;51.176;6.470;2023-10-19T06:29:53;98817.63;;;13.95;100.00
10897;BME280;5501;51.176;6.470;2023-10-19T06:34:54;98828.09;;;13.98;100.00
10897;BME280;5501;51.176;6.470;2023-10-19T06:39:56;98829.59;;;14.02;100.00
10897;BME280;5501;51.176;6.470;2023-10-19T06:44:58;98832.00;;;14.05;100.00
10897;BME280;5501;51.176;6.470;2023-10-19T06:49:59;98837.66;;;14.13;100.00
10897;BME280;5501;51.176;6.470;2023-10-19T06:55:02;98831.13;;;14.17;100.00
10897;BME280;5501;51.176;6.470;2023-10-19T07:00:05;98834.25;;;14.11;100.00
10897;BME280;5501;51.176;6.470;2023-10-19T07:05:15;98831.03;;;14.18;100.00
10897;BME280;5501;51.176;6.470;2023-10-19T07:10:23;98841.63;;;14.20;100.00
10897;BME280;5501;51.176;6.470;2023-10-19T07:15:25;98845.38;;;14.30;100.00
10897;BME280;5501;51.176;6.470;2023-10-19T07:20:31;98842.94;;;14.27;100.00
10897;BME280;5501;51.176;6.470;2023-10-19T07:25:40;98841.53;;;14.34;100.00
10897;BME280;5501;51.176;6.470;2023-10-19T07:30:45;98844.94;;;14.36;100.00
10897;BME280;5501;51.176;6.470;2023-10-19T07:35:52;98838.91;;;14.45;100.00
10897;BME280;5501;51.176;6.470;2023-10-19T07:40:56;98842.34;;;14.47;100.00
10897;BME280;5501;51.176;6.470;2023-10-19T07:45:58;98841.03;;;14.52;100.00
10897;BME280;5501;51.176;6.470;2023-10-19T07:50:59;98828.06;;;14.59;100.00
10897;BME280;5501;51.176;6.470;2023-10-19T07:56:01;98829.03;;;14.81;100.00
10897;BME280;5501;51.176;6.470;2023-10-19T08:01:02;98826.81;;;15.10;100.00
10897;BME280;5501;51.176;6.470;2023-10-19T08:06:04;98832.25;;;15.32;100.00
10897;BME280;5501;51.176;6.470;2023-10-19T08:11:08;98827.44;;;15.48;100.00
10897;BME280;5501;51.176;6.470;2023-10-19T08:16:10;98829.44;;;15.68;100.00
10897;BME280;5501;51.176;6.470;2023-10-19T08:21:13;98816.75;;;15.70;100.00
10897;BME280;5501;51.176;6.470;2023-10-19T08:26:15;98807.00;;;15.80;100.00
10897;BME280;5501;51.176;6.470;2023-10-19T08:31:16;98814.94;;;16.04;100.00
10897;BME280;5501;51.176;6.470;2023-10-19T08:36:18;98811.50;;;16.02;100.00
10897;BME280;5501;51.176;6.470;2023-10-19T08:41:23;98804.56;;;16.10;100.00
10897;BME280;5501;51.176;6.470;2023-10-19T08:46:24;98801.88;;;16.21;100.00
10897;BME280;5501;51.176;6.470;2023-10-19T08:51:26;98802.31;;;16.37;100.00
10897;BME280;5501;51.176;6.470;2023-10-19T08:56:29;98800.09;;;16.64;100.00
10897;BME280;5501;51.176;6.470;2023-10-19T09:01:30;98800.09;;;16.64;100.00
10897;BME280;5501;51.176;6.470;2023-10-19T09:06:35;98782.72;;;16.79;100.00
10897;BME280;5501;51.176;6.470;2023-10-19T09:11:43;98783.63;;;16.89;100.00
10897;BME280;5501;51.176;6.470;2023-10-19T09:16:55;98771.50;;;17.06;100.00
10897;BME280;5501;51.176;6.470;2023-10-19T09:21:57;98770.56;;;17.16;100.00
10897;BME280;5501;51.176;6.470;2023-10-19T09:27:02;98775.75;;;17.29;100.00
10897;BME280;5501;51.176;6.470;2023-10-19T09:32:05;98776.34;;;17.32;100.00
10897;BME280;5501;51.176;6.470;2023-10-19T09:37:07;98780.72;;;17.33;100.00
10897;BME280;5501;51.176;6.470;2023-10-19T09:42:10;98779.88;;;17.53;100.00
10897;BME280;5501;51.176;6.470;2023-10-19T09:47:15;98768.88;;;17.56;100.00
10897;BME280;5501;51.176;6.470;2023-10-19T09:52:19;98770.88;;;17.84;100.00
10897;BME280;5501;51.176;6.470;2023-10-19T09:57:34;98760.00;;;17.95;100.00
10897;BME280;5501;51.176;6.470;2023-10-19T10:02:42;98762.31;;;18.09;100.00
10897;BME280;5501;51.176;6.470;2023-10-19T10:07:47;98756.38;;;18.15;100.00
10897;BME280;5501;51.176;6.470;2023-10-19T10:12:49;98747.88;;;18.10;100.00
10897;BME280;5501;51.176;6.470;2023-10-19T10:17:51;98756.03;;;17.90;100.00
10897;BME280;5501;51.176;6.470;2023-10-19T10:23:15;98747.00;;;18.00;100.00
10897;BME280;5501;51.176;6.470;2023-10-19T10:28:17;98750.84;;;18.17;100.00
10897;BME280;5501;51.176;6.470;2023-10-19T10:33:37;98743.97;;;18.33;100.00
10897;BME280;5501;51.176;6.470;2023-10-19T10:38:40;98746.03;;;18.88;99.64
10897;BME280;5501;51.176;6.470;2023-10-19T10:43:49;98739.34;;;19.11;98.37
10897;BME280;5501;51.176;6.470;2023-10-19T10:48:53;98743.19;;;18.99;99.81
10897;BME280;5501;51.176;6.470;2023-10-19T10:53:55;98732.13;;;18.93;100.00
10897;BME280;5501;51.176;6.470;2023-10-19T10:58:56;98719.66;;;18.73;100.00
10897;BME280;5501;51.176;6.470;2023-10-19T11:04:09;98717.84;;;18.73;100.00
10897;BME280;5501;51.176;6.470;2023-10-19T11:09:12;98719.94;;;18.79;100.00
10897;BME280;5501;51.176;6.470;2023-10-19T11:14:13;98706.06;;;18.74;100.00
10897;BME280;5501;51.176;6.470;2023-10-19T11:19:15;98696.84;;;18.67;100.00
10897;BME280;5501;51.176;6.470;2023-10-19T11:24:24;98703.50;;;18.82;100.00
10897;BME280;5501;51.176;6.470;2023-10-19T11:29:27;98695.56;;;18.90;100.00
10897;BME280;5501;51.176;6.470;2023-10-19T11:34:29;98699.81;;;19.02;100.00
10897;BME280;5501;51.176;6.470;2023-10-19T11:39:32;98701.50;;;19.03;100.00
10897;BME280;5501;51.176;6.470;2023-10-19T11:44:33;98683.03;;;19.08;100.00
10897;BME280;5501;51.176;6.470;2023-10-19T11:49:35;98682.91;;;19.00;100.00
10897;BME280;5501;51.176;6.470;2023-10-19T11:54:37;98688.16;;;18.92;100.00
10897;BME280;5501;51.176;6.470;2023-10-19T11:59:40;98671.13;;;19.01;100.00
10897;BME280;5501;51.176;6.470;2023-10-19T12:04:42;98665.19;;;19.07;100.00
10897;BME280;5501;51.176;6.470;2023-10-19T12:09:44;98646.47;;;18.96;100.00
10897;BME280;5501;51.176;6.470;2023-10-19T12:14:46;98651.84;;;19.15;100.00
10897;BME280;5501;51.176;6.470;2023-10-19T12:19:48;98656.69;;;19.02;100.00
10897;BME280;5501;51.176;6.470;2023-10-19T12:24:49;98664.09;;;18.81;100.00
10897;BME280;5501;51.176;6.470;2023-10-19T12:29:52;98666.81;;;18.81;100.00
10897;BME280;5501;51.176;6.470;2023-10-19T12:34:54;98660.16;;;18.76;100.00
10897;BME280;5501;51.176;6.470;2023-10-19T12:39:59;98652.78;;;18.49;100.00
10897;BME280;5501;51.176;6.470;2023-10-19T12:45:02;98647.97;;;18.53;100.00
10897;BME280;5501;51.176;6.470;2023-10-19T12:50:04;98644.00;;;18.47;100.00
10897;BME280;5501;51.176;6.470;2023-10-19T12:55:08;98645.13;;;18.54;100.00
10897;BME280;5501;51.176;6.470;2023-10-19T13:00:10;98653.22;;;18.45;100.00
10897;BME280;5501;51.176;6.470;2023-10-19T13:05:37;98653.22;;;18.45;100.00
10897;BME280;5501;51.176;6.470;2023-10-19T13:10:43;98648.38;;;18.48;100.00
10897;BME280;5501;51.176;6.470;2023-10-19T13:15:45;98645.84;;;18.47;100.00
10897;BME280;5501;51.176;6.470;2023-10-19T13:20:49;98649.97;;;18.51;100.00
10897;BME280;5501;51.176;6.470;2023-10-19T13:25:51;98640.75;;;18.53;100.00
10897;BME280;5501;51.176;6.470;2023-10-19T13:30:58;98630.97;;;18.43;100.00
10897;BME280;5501;51.176;6.470;2023-10-19T13:36:00;98634.91;;;18.67;100.00
10897;BME280;5501;51.176;6.470;2023-10-19T13:41:06;98626.69;;;18.40;100.00
10897;BME280;5501;51.176;6.470;2023-10-19T13:46:11;98621.44;;;18.29;100.00
10897;BME280;5501;51.176;6.470;2023-10-19T13:51:16;98607.00;;;18.30;100.00
10897;BME280;5501;51.176;6.470;2023-10-19T13:56:17;98607.25;;;18.18;100.00
10897;BME280;5501;51.176;6.470;2023-10-19T14:01:19;98600.63;;;18.12;100.00
10897;BME280;5501;51.176;6.470;2023-10-19T14:06:25;98600.59;;;17.93;100.00
10897;BME280;5501;51.176;6.470;2023-10-19T14:11:28;98600.84;;;17.81;100.00
10897;BME280;5501;51.176;6.470;2023-10-19T14:16:30;98594.66;;;17.80;100.00
10897;BME280;5501;51.176;6.470;2023-10-19T14:21:32;98583.16;;;17.78;100.00
10897;BME280;5501;51.176;6.470;2023-10-19T14:26:38;98563.94;;;17.73;100.00
10897;BME280;5501;51.176;6.470;2023-10-19T14:31:41;98544.53;;;17.79;100.00
10897;BME280;5501;51.176;6.470;2023-10-19T14:36:43;98540.03;;;17.89;100.00
10897;BME280;5501;51.176;6.470;2023-10-19T14:41:45;98528.84;;;17.84;100.00
10897;BME280;5501;51.176;6.470;2023-10-19T14:46:46;98524.44;;;17.83;100.00
10897;BME280;5501;51.176;6.470;2023-10-19T14:51:48;98521.63;;;17.94;100.00
10897;BME280;5501;51.176;6.470;2023-10-19T14:56:50;98505.75;;;17.91;100.00
10897;BME280;5501;51.176;6.470;2023-10-19T15:01:51;98506.91;;;17.98;100.00
10897;BME280;5501;51.176;6.470;2023-10-19T15:06:53;98490.16;;;18.23;100.00
10897;BME280;5501;51.176;6.470;2023-10-19T15:11:55;98481.41;;;18.12;100.00
10897;BME280;5501;51.176;6.470;2023-10-19T15:16:57;98486.50;;;18.24;100.00
10897;BME280;5501;51.176;6.470;2023-10-19T15:22:00;98499.69;;;18.08;100.00
10897;BME280;5501;51.176;6.470;2023-10-19T15:27:01;98495.59;;;17.85;100.00
10897;BME280;5501;51.176;6.470;2023-10-19T15:32:04;98479.59;;;17.65;100.00
10897;BME280;5501;51.176;6.470;2023-10-19T15:37:06;98464.72;;;17.70;100.00
10897;BME280;5501;51.176;6.470;2023-10-19T15:42:07;98455.66;;;17.81;100.00
10897;BME280;5501;51.176;6.470;2023-10-19T15:47:09;98452.84;;;17.73;100.00
10897;BME280;5501;51.176;6.470;2023-10-19T15:52:17;98457.53;;;17.71;100.00
10897;BME280;5501;51.176;6.470;2023-10-19T15:57:19;98443.50;;;17.86;100.00
10897;BME280;5501;51.176;6.470;2023-10-19T16:02:21;98426.53;;;17.76;100.00
10897;BME280;5501;51.176;6.470;2023-10-19T16:07:23;98434.47;;;17.68;100.00
10897;BME280;5501;51.176;6.470;2023-10-19T16:12:24;98443.94;;;17.53;100.00
10897;BME280;5501;51.176;6.470;2023-10-19T16:17:26;98441.84;;;17.47;100.00
10897;BME280;5501;51.176;6.470;2023-10-19T16:22:28;98442.19;;;17.33;100.00
10897;BME280;5501;51.176;6.470;2023-10-19T16:27:30;98446.00;;;17.21;100.00
10897;BME280;5501;51.176;6.470;2023-10-19T16:32:32;98444.84;;;17.14;100.00
10897;BME280;5501;51.176;6.470;2023-10-19T16:37:37;98444.41;;;17.09;100.00
10897;BME280;5501;51.176;6.470;2023-10-19T16:42:39;98461.34;;;17.00;100.00
10897;BME280;5501;51.176;6.470;2023-10-19T16:47:41;98449.19;;;16.96;100.00
10897;BME280;5501;51.176;6.470;2023-10-19T16:52:45;98436.34;;;16.90;100.00
10897;BME280;5501;51.176;6.470;2023-10-19T16:57:46;98438.03;;;16.91;100.00
10897;BME280;5501;51.176;6.470;2023-10-19T17:02:48;98439.97;;;16.89;100.00
10897;BME280;5501;51.176;6.470;2023-10-19T17:07:50;98425.44;;;16.92;100.00
10897;BME280;5501;51.176;6.470;2023-10-19T17:12:51;98428.66;;;16.76;100.00
10897;BME280;5501;51.176;6.470;2023-10-19T17:17:53;98427.22;;;16.72;100.00
10897;BME280;5501;51.176;6.470;2023-10-19T17:22:55;98428.34;;;16.70;100.00
10897;BME280;5501;51.176;6.470;2023-10-19T17:27:57;98412.94;;;16.72;100.00
10897;BME280;5501;51.176;6.470;2023-10-19T17:32:59;98405.03;;;16.80;100.00
10897;BME280;5501;51.176;6.470;2023-10-19T17:38:12;98435.69;;;16.77;100.00
10897;BME280;5501;51.176;6.470;2023-10-19T17:43:14;98435.34;;;16.61;100.00
10897;BME280;5501;51.176;6.470;2023-10-19T17:48:16;98427.13;;;16.53;100.00
10897;BME280;5501;51.176;6.470;2023-10-19T17:53:18;98432.69;;;16.61;100.00
10897;BME280;5501;51.176;6.470;2023-10-19T17:58:20;98425.34;;;16.63;100.00
10897;BME280;5501;51.176;6.470;2023-10-19T18:03:22;98407.41;;;16.54;100.00
10897;BME280;5501;51.176;6.470;2023-10-19T18:08:27;98401.72;;;16.57;100.00
10897;BME280;5501;51.176;6.470;2023-10-19T18:13:29;98403.72;;;16.55;100.00
10897;BME280;5501;51.176;6.470;2023-10-19T18:18:32;98384.22;;;16.53;100.00
10897;BME280;5501;51.176;6.470;2023-10-19T18:23:34;98366.03;;;16.36;100.00
10897;BME280;5501;51.176;6.470;2023-10-19T18:28:36;98364.44;;;16.45;100.00
10897;BME280;5501;51.176;6.470;2023-10-19T18:33:43;98376.50;;;16.39;100.00
10897;BME280;5501;51.176;6.470;2023-10-19T18:38:44;98376.06;;;16.34;100.00
10897;BME280;5501;51.176;6.470;2023-10-19T18:43:47;98370.84;;;16.33;100.00
10897;BME280;5501;51.176;6.470;2023-10-19T18:48:48;98369.09;;;16.22;100.00
10897;BME280;5501;51.176;6.470;2023-10-19T18:53:50;98350.25;;;16.33;100.00
10897;BME280;5501;51.176;6.470;2023-10-19T18:58:52;98344.88;;;16.33;100.00
10897;BME280;5501;51.176;6.470;2023-10-19T19:03:54;98334.16;;;16.33;100.00
10897;BME280;5501;51.176;6.470;2023-10-19T19:08:56;98334.72;;;16.37;100.00
10897;BME280;5501;51.176;6.470;2023-10-19T19:13:57;98319.03;;;16.32;100.00
10897;BME280;5501;51.176;6.470;2023-10-19T19:18:59;98321.00;;;16.30;100.00
10897;BME280;5501;51.176;6.470;2023-10-19T19:24:00;98329.06;;;16.30;100.00
10897;BME280;5501;51.176;6.470;2023-10-19T19:29:03;98344.41;;;16.28;100.00
10897;BME280;5501;51.176;6.470;2023-10-19T19:34:06;98337.22;;;16.29;100.00
10897;BME280;5501;51.176;6.470;2023-10-19T19:39:07;98350.78;;;16.27;100.00
10897;BME280;5501;51.176;6.470;2023-10-19T19:44:10;98356.69;;;16.21;100.00
10897;BME280;5501;51.176;6.470;2023-10-19T19:49:11;98347.38;;;16.25;100.00
10897;BME280;5501;51.176;6.470;2023-10-19T19:54:15;98344.84;;;16.24;100.00
10897;BME280;5501;51.176;6.470;2023-10-19T19:59:17;98345.41;;;16.27;100.00
10897;BME280;5501;51.176;6.470;2023-10-19T20:04:19;98350.78;;;16.27;100.00
10897;BME280;5501;51.176;6.470;2023-10-19T20:09:20;98348.09;;;16.27;100.00
10897;BME280;5501;51.176;6.470;2023-10-19T20:14:24;98332.72;;;16.29;100.00
10897;BME280;5501;51.176;6.470;2023-10-19T20:19:25;98335.41;;;16.29;100.00
10897;BME280;5501;51.176;6.470;2023-10-19T20:24:27;98313.22;;;16.27;100.00
10897;BME280;5501;51.176;6.470;2023-10-19T20:29:28;98317.16;;;16.23;100.00
10897;BME280;5501;51.176;6.470;2023-10-19T20:34:30;98295.72;;;16.23;100.00
10897;BME280;5501;51.176;6.470;2023-10-19T20:39:34;98288.66;;;16.22;100.00
10897;BME280;5501;51.176;6.470;2023-10-19T20:44:38;98259.84;;;16.24;100.00
10897;BME280;5501;51.176;6.470;2023-10-19T20:49:43;98263.78;;;16.20;100.00
10897;BME280;5501;51.176;6.470;2023-10-19T20:54:46;98246.88;;;16.20;100.00
10897;BME280;5501;51.176;6.470;2023-10-19T20:59:48;98236.56;;;16.15;100.00
10897;BME280;5501;51.176;6.470;2023-10-19T21:04:49;98239.50;;;16.12;100.00
10897;BME280;5501;51.176;6.470;2023-10-19T21:09:54;98236.81;;;16.12;100.00
10897;BME280;5501;51.176;6.470;2023-10-19T21:14:56;98235.94;;;16.02;100.00
10897;BME280;5501;51.176;6.470;2023-10-19T21:19:57;98228.44;;;15.96;100.00
10897;BME280;5501;51.176;6.470;2023-10-19T21:24:59;98220.56;;;15.95;100.00
10897;BME280;5501;51.176;6.470;2023-10-19T21:30:00;98208.72;;;15.97;100.00
10897;BME280;5501;51.176;6.470;2023-10-19T21:35:02;98206.03;;;15.97;100.00
10897;BME280;5501;51.176;6.470;2023-10-19T21:40:05;98207.56;;;15.90;100.00
10897;BME280;5501;51.176;6.470;2023-10-19T21:45:08;98191.88;;;15.86;100.00
10897;BME280;5501;51.176;6.470;2023-10-19T21:50:09;98192.00;;;15.84;100.00
10897;BME280;5501;51.176;6.470;2023-10-19T21:55:12;98187.53;;;15.94;100.00
10897;BME280;5501;51.176;6.470;2023-10-19T22:00:14;98180.50;;;15.93;100.00
10897;BME280;5501;51.176;6.470;2023-10-19T22:05:28;98188.09;;;15.98;100.00
10897;BME280;5501;51.176;6.470;2023-10-19T22:10:31;98190.38;;;16.02;100.00
10897;BME280;5501;51.176;6.470;2023-10-19T22:15:34;98166.53;;;15.99;100.00
10897;BME280;5501;51.176;6.470;2023-10-19T22:20:36;98144.53;;;16.05;100.00
10897;BME280;5501;51.176;6.470;2023-10-19T22:25:37;98132.56;;;16.09;100.00
10897;BME280;5501;51.176;6.470;2023-10-19T22:30:40;98140.44;;;16.11;100.00
10897;BME280;5501;51.176;6.470;2023-10-19T22:35:41;98135.09;;;16.01;100.00
10897;BME280;5501;51.176;6.470;2023-10-19T22:40:43;98142.69;;;16.06;100.00
10897;BME280;5501;51.176;6.470;2023-10-19T22:45:45;98143.28;;;16.09;100.00
10897;BME280;5501;51.176;6.470;2023-10-19T22:50:47;98134.38;;;16.18;100.00
10897;BME280;5501;51.176;6.470;2023-10-19T22:55:48;98123.50;;;16.10;100.00
10897;BME280;5501;51.176;6.470;2023-10-19T23:00:50;98111.09;;;16.09;100.00
10897;BME280;5501;51.176;6.470;2023-10-19T23:05:52;98112.34;;;16.15;100.00
10897;BME280;5501;51.176;6.470;2023-10-19T23:10:55;98105.44;;;16.22;100.00
10897;BME280;5501;51.176;6.470;2023-10-19T23:15:57;98115.63;;;16.18;100.00
10897;BME280;5501;51.176;6.470;2023-10-19T23:21:04;98117.31;;;16.19;100.00
10897;BME280;5501;51.176;6.470;2023-10-19T23:26:08;98101.50;;;16.26;100.00
10897;BME280;5501;51.176;6.470;2023-10-19T23:31:10;98101.22;;;16.19;100.00
10897;BME280;5501;51.176;6.470;2023-10-19T23:36:13;98090.75;;;16.16;100.00
10897;BME280;5501;51.176;6.470;2023-10-19T23:41:14;98072.56;;;16.20;100.00
10897;BME280;5501;51.176;6.470;2023-10-19T23:46:16;98067.06;;;16.21;100.00
10897;BME280;5501;51.176;6.470;2023-10-19T23:51:20;98058.19;;;16.21;100.00
10897;BME280;5501;51.176;6.470;2023-10-19T23:56:21;98051.81;;;16.31;100.00
